Time;durP1;ratioP1;P1;durP2;ratioP2;P2;SDS_P1;SDS_P2;PMS_P1;PMS_P2;Temp;Humidity;BMP_temperature;BMP_pressure;BME280_temperature;BME280_humidity;BME280_pressure;Samples;Min_cycle;Max_cycle;Signal;HPM_P1;HPM_P2
2023/10/23 00:06:40;;;;;;;;;;;;;;;;;;;;;
2023/10/23 00:12:21;;;;;;;;;;;;;;;8.87;100.00;101202.16;5056321;28;19962;-93
2023/10/23 00:18:30;;;;;;;;;;;;;;;8.70;100.00;101202.13;5056217;28;19913;-94
2023/10/23 00:21:04;;;;;;;;;;;;;;;8.59;100.00;101207.34;5074780;28;20011;-94
2023/10/23 00:26:46;;;;;;;;;;;;;;;8.60;100.00;101209.06;5058937;28;20288;-93
2023/10/23 00:32:12;;;;;;;;;;;;;;;8.67;100.00;101195.16;5064092;28;19924;-94
2023/10/23 00:34:49;;;;;;;;;;;;;;;8.70;100.00;101199.50;5051102;28;20280;-94
2023/10/23 00:37:56;;;;;;;;;;;;;;;;;;;;;
2023/10/23 00:43:45;;;;;;;;;;;;;;;8.74;100.00;101203.00;5032788;28;19923;-93
2023/10/23 00:53:29;;;;;;;;;;;;;;;;;;;;;
2023/10/23 00:56:25;;;;;;;;;;;;;;;;;;;;;
2023/10/23 00:59:28;;;;;;;;;;;;;;;;;;;;;
2023/10/23 01:05:37;;;;;;;;;;;;;;;8.62;100.00;101217.78;5009224;28;20385;-94
2023/10/23 01:08:22;;;;;;;;;;;;;;;8.60;100.00;101210.81;5015800;28;19967;-94
2023/10/23 01:18:00;;;;;;;;;;;;;;;8.56;100.00;101223.00;4972960;28;20049;-94
2023/10/23 01:20:51;;;;;;;;;;;;;;;;;;;;;
2023/10/23 01:23:42;;;;;;;;;;;;;;;;;;;;;
2023/10/23 01:26:32;;;;;;;;;;;;;;;8.56;100.00;101223.00;4969487;28;19914;-94
2023/10/23 01:32:28;;;;;;;;;;;;;;;;;;;;;
2023/10/23 01:41:50;;;;;;;;;;;;;;;8.55;100.00;101222.97;5012017;28;20332;-93
2023/10/23 01:56:56;;;;;;;;;;;;;;;;;;;;;
2023/10/23 01:59:52;;;;;;;;;;;;;;;8.43;100.00;101205.50;5074139;28;19916;-93
2023/10/23 02:12:32;;;;;;;;;;;;;;;;;;;;;
2023/10/23 02:22:35;;;;;;;;;;;;;;;8.29;100.00;101219.41;4929493;29;20275;-93
2023/10/23 02:34:55;;;;;;;;;;;;;;;8.23;100.00;101242.88;5009021;28;19917;-93
2023/10/23 02:37:53;;;;;;;;;;;;;;;;;;;;;
2023/10/23 02:43:59;;;;;;;;;;;;;;;8.16;100.00;101248.94;5058850;28;19916;-93
2023/10/23 02:46:45;;;;;;;;;;;;;;;;;;;;;
2023/10/23 02:49:19;;;;;;;;;;;;;;;8.09;100.00;101255.00;5015747;28;20436;-93
2023/10/23 03:01:40;;;;;;;;;;;;;;;8.02;100.00;101258.44;5022547;28;19923;-93
2023/10/23 03:10:32;;;;;;;;;;;;;;;7.97;100.00;101256.69;5030945;28;19959;-93
2023/10/23 03:13:23;;;;;;;;;;;;;;;7.94;100.00;101253.16;5024481;28;19917;-94
2023/10/23 03:28:17;;;;;;;;;;;;;;;7.77;100.00;101253.06;4996505;28;20405;-92
2023/10/23 03:31:07;;;;;;;;;;;;;;;7.76;100.00;101246.97;4996780;28;19976;-92
2023/10/23 03:33:35;;;;;;;;;;;;;;;7.74;100.00;101256.53;4996465;28;19917;-93
2023/10/23 03:42:33;;;;;;;;;;;;;;;7.56;100.00;101257.28;5015413;28;20297;-93
2023/10/23 04:13:26;;;;;;;;;;;;;;;7.13;100.00;101271.69;5035723;28;19924;-93
2023/10/23 04:18:42;;;;;;;;;;;;;;;7.08;100.00;101275.13;5033268;28;19921;-93
2023/10/23 04:33:52;;;;;;;;;;;;;;;6.85;100.00;101266.19;5056086;28;19962;-93
2023/10/23 04:42:35;;;;;;;;;;;;;;;6.92;100.00;101278.41;5055197;28;19919;-93
2023/10/23 04:45:30;;;;;;;;;;;;;;;;;;;;;
2023/10/23 04:48:27;;;;;;;;;;;;;;;6.97;100.00;101278.47;5034925;28;19919;-93
2023/10/23 04:57:25;;;;;;;;;;;;;;;6.72;100.00;101275.59;5041026;28;19966;-91
2023/10/23 05:00:17;;;;;;;;;;;;;;;6.74;100.00;101273.91;5056480;28;19959;-93
2023/10/23 05:03:09;;;;;;;;;;;;;;;;;;;;;
2023/10/23 05:05:58;;;;;;;;;;;;;;;6.74;100.00;101273.91;5074857;28;19916;-93
2023/10/23 05:08:33;;;;;;;;;;;;;;;6.69;100.00;101272.97;5059177;28;19948;-93
2023/10/23 05:11:12;;;;;;;;;;;;;;;6.59;100.00;101264.19;5043103;28;19932;-93
2023/10/23 05:13:50;;;;;;;;;;;;;;;6.52;100.00;101262.34;5041485;28;19917;-93
2023/10/23 05:16:22;;;;;;;;;;;;;;;6.51;100.00;101271.91;5041852;28;19917;-93
2023/10/23 05:18:53;;;;;;;;;;;;;;;6.56;100.00;101280.63;5060132;28;19924;-93
2023/10/23 05:21:37;;;;;;;;;;;;;;;6.58;100.00;101272.88;5059228;28;19912;-93
2023/10/23 05:27:05;;;;;;;;;;;;;;;6.48;100.00;101270.97;5076217;28;20023;-93
2023/10/23 05:29:49;;;;;;;;;;;;;;;6.42;100.00;101271.78;5058540;28;20311;-93
2023/10/23 05:32:26;;;;;;;;;;;;;;;6.32;100.00;101273.41;5058872;28;19913;-93
2023/10/23 05:38:02;;;;;;;;;;;;;;;6.23;100.00;101266.38;5076176;28;20280;-93
2023/10/23 05:40:29;;;;;;;;;;;;;;;6.20;100.00;101265.44;5037336;28;19987;-93
2023/10/23 05:42:55;;;;;;;;;;;;;;;6.17;100.00;101268.00;5037210;28;20240;-92
2023/10/23 05:45:40;;;;;;;;;;;;;;;6.11;100.00;101270.53;5053320;28;19924;-92
2023/10/23 05:48:05;;;;;;;;;;;;;;;6.04;100.00;101264.38;5076763;28;19919;-91
2023/10/23 05:51:23;;;;;;;;;;;;;;;6.04;100.00;101261.75;5073355;28;20292;-91
2023/10/23 06:00:04;;;;;;;;;;;;;;;6.13;100.00;101284.44;5071603;28;19919;-92
2023/10/23 06:05:47;;;;;;;;;;;;;;;6.09;100.00;101278.28;5017093;28;19968;-92
2023/10/23 06:08:46;;;;;;;;;;;;;;;;;;;;;
2023/10/23 06:11:19;;;;;;;;;;;;;;;6.07;100.00;101277.41;5074052;28;19917;-92
2023/10/23 06:14:06;;;;;;;;;;;;;;;6.07;100.00;101275.66;5059558;28;19916;-92
2023/10/23 06:16:56;;;;;;;;;;;;;;;6.10;100.00;101277.44;5078724;28;19920;-92
2023/10/23 06:22:41;;;;;;;;;;;;;;;6.17;100.00;101284.47;5077601;28;19919;-92
2023/10/23 06:31:13;;;;;;;;;;;;;;;6.31;100.00;101276.00;5083343;28;19919;-91
2023/10/23 06:33:48;;;;;;;;;;;;;;;6.39;100.00;101276.94;5060491;28;20311;-91
2023/10/23 06:39:19;;;;;;;;;;;;;;;6.59;100.00;101275.47;5080370;28;19923;-92
2023/10/23 06:41:55;;;;;;;;;;;;;;;6.70;100.00;101286.00;5065330;28;19917;-91
2023/10/23 06:47:49;;;;;;;;;;;;;;;6.81;100.00;101286.16;5080087;28;20363;-91
2023/10/23 06:53:39;;;;;;;;;;;;;;;7.00;100.00;101281.13;5075184;28;19970;-91
2023/10/23 06:56:24;;;;;;;;;;;;;;;7.15;100.00;101275.19;5027299;28;20006;-91
2023/10/23 06:59:08;;;;;;;;;;;;;;;7.66;100.00;101272.97;5060190;28;19928;-91
2023/10/23 07:08:07;;;;;;;;;;;;;;;12.07;100.00;101268.75;5073890;28;20054;-91
2023/10/23 07:11:04;;;;;;;;;;;;;;;;;;;;;
2023/10/23 07:13:32;;;;;;;;;;;;;;;14.12;100.00;101273.56;5073589;28;19919;-92
2023/10/23 07:16:06;;;;;;;;;;;;;;;14.92;100.00;101278.06;5056899;28;20319;-92
2023/10/23 07:21:52;;;;;;;;;;;;;;;16.46;96.82;101276.72;5074093;28;19919;-92
2023/10/23 07:33:30;;;;;;;;;;;;;;;17.84;84.89;101275.88;5012091;28;20357;-92
2023/10/23 07:42:11;;;;;;;;;;;;;;;18.68;82.23;101271.91;5052308;28;20335;-92
2023/10/23 07:45:04;;;;;;;;;;;;;;;18.91;82.58;101278.16;5055882;28;19924;-93
2023/10/23 07:47:55;;;;;;;;;;;;;;;19.11;77.29;101280.00;5055535;28;19920;-92
2023/10/23 07:50:23;;;;;;;;;;;;;;;18.16;80.83;101280.06;5073593;28;19913;-92
2023/10/23 07:53:01;;;;;;;;;;;;;;;17.22;85.16;101280.59;5056898;28;19951;-92
2023/10/23 07:55:47;;;;;;;;;;;;;;;16.42;85.77;101283.00;5050827;28;19967;-92
2023/10/23 07:58:20;;;;;;;;;;;;;;;15.79;90.33;101283.00;5052385;28;19921;-92
2023/10/23 08:01:01;;;;;;;;;;;;;;;;;;;;;
2023/10/23 08:09:45;;;;;;;;;;;;;;;15.24;84.29;101270.25;4981252;28;19921;-92
2023/10/23 08:12:13;;;;;;;;;;;;;;;15.58;86.39;101265.91;4980732;28;19922;-91
2023/10/23 08:14:56;;;;;;;;;;;;;;;16.24;83.96;101280.00;4947326;28;19961;-92
2023/10/23 08:20:29;;;;;;;;;;;;;;;16.87;78.21;101263.19;4980274;28;19968;-92
2023/10/23 08:23:27;;;;;;;;;;;;;;;16.49;80.25;101258.13;4964904;28;19913;-91
2023/10/23 08:30:04;;;;;;;;;;;;;;;15.87;84.14;101265.16;4944369;29;19919;-91
2023/10/23 08:32:44;;;;;;;;;;;;;;;15.82;83.34;101261.78;4904023;29;19939;-92
2023/10/23 08:41:36;;;;;;;;;;;;;;;15.21;84.05;101262.41;4943866;29;20026;-91
2023/10/23 08:44:03;;;;;;;;;;;;;;;14.94;87.11;101271.88;4955081;28;19965;-92
2023/10/23 08:46:34;;;;;;;;;;;;;;;14.64;87.50;101271.63;4977908;28;19940;-92
2023/10/23 08:49:05;;;;;;;;;;;;;;;14.43;85.94;101277.34;4973738;28;19934;-92
2023/10/23 08:51:42;;;;;;;;;;;;;;;14.52;87.25;101272.75;4953207;29;19919;-92
2023/10/23 08:54:18;;;;;;;;;;;;;;;14.20;87.13;101284.81;5076214;28;19976;-92
2023/10/23 08:56:47;;;;;;;;;;;;;;;13.94;87.88;101272.13;5091686;28;19960;-92
2023/10/23 08:59:14;;;;;;;;;;;;;;;13.75;88.98;101276.00;5078305;28;19955;-92
2023/10/23 09:01:53;;;;;;;;;;;;;;;13.52;89.53;101274.66;5078552;28;19920;-92
2023/10/23 09:04:40;;;;;;;;;;;;;;;13.59;91.16;101280.66;5059784;28;19920;-91
2023/10/23 09:07:08;;;;;;;;;;;;;;;13.40;89.78;101270.44;5095172;28;19912;-93
2023/10/23 09:09:33;;;;;;;;;;;;;;;13.33;91.63;101266.16;5079846;28;19901;-92
2023/10/23 09:12:08;;;;;;;;;;;;;;;13.30;92.21;101263.56;5094621;28;19920;-92
2023/10/23 09:14:35;;;;;;;;;;;;;;;13.28;92.12;101260.97;5047853;28;19917;-92
2023/10/23 09:17:03;;;;;;;;;;;;;;;13.23;91.76;101259.28;5057168;28;19971;-93
2023/10/23 09:19:41;;;;;;;;;;;;;;;13.27;92.14;101258.34;5075631;28;19912;-93
2023/10/23 09:22:10;;;;;;;;;;;;;;;13.16;92.26;101251.50;5057571;28;19923;-92
2023/10/23 09:24:35;;;;;;;;;;;;;;;13.08;92.02;101253.38;5057647;28;19966;-93
2023/10/23 09:27:07;;;;;;;;;;;;;;;13.10;92.64;101254.25;5057640;28;20344;-93
2023/10/23 09:29:38;;;;;;;;;;;;;;;13.08;93.01;101253.38;5056386;28;19963;-93
2023/10/23 09:35:21;;;;;;;;;;;;;;;13.27;92.19;101248.69;5075364;28;19919;-93
2023/10/23 09:38:13;;;;;;;;;;;;;;;13.26;92.75;101244.34;5056663;28;19958;-92
2023/10/23 09:41:00;;;;;;;;;;;;;;;13.37;92.24;101246.81;5026742;28;19917;-91
2023/10/23 09:43:39;;;;;;;;;;;;;;;13.34;91.71;101234.56;5041435;28;20022;-92
2023/10/23 09:46:14;;;;;;;;;;;;;;;13.27;92.78;101235.53;5057030;28;19919;-92
2023/10/23 09:55:04;;;;;;;;;;;;;;;13.36;93.28;101225.78;5074124;28;20377;-91
2023/10/23 09:57:47;;;;;;;;;;;;;;;13.29;93.13;101230.25;5074485;28;20045;-91
2023/10/23 10:00:13;;;;;;;;;;;;;;;13.25;93.76;101228.56;5055563;28;20315;-92
2023/10/23 10:02:42;;;;;;;;;;;;;;;13.09;93.97;101223.56;5056038;28;19927;-92
2023/10/23 10:05:27;;;;;;;;;;;;;;;13.04;94.58;101217.50;5052865;28;19924;-92
2023/10/23 10:08:07;;;;;;;;;;;;;;;13.08;94.88;101219.19;5054921;28;19955;-92
2023/10/23 10:10:52;;;;;;;;;;;;;;;13.17;94.50;101219.03;5052903;28;20309;-92
2023/10/23 10:13:23;;;;;;;;;;;;;;;13.27;94.79;101216.25;5053385;28;19920;-92
2023/10/23 10:15:49;;;;;;;;;;;;;;;13.37;94.35;101211.72;5056146;28;19912;-91
2023/10/23 10:18:16;;;;;;;;;;;;;;;13.35;93.95;101214.41;5073649;28;19919;-92
2023/10/23 10:20:47;;;;;;;;;;;;;;;13.33;94.20;101219.66;5056036;28;20054;-92
2023/10/23 10:23:14;;;;;;;;;;;;;;;13.33;94.27;101213.50;5072635;28;19943;-92
2023/10/23 10:25:50;;;;;;;;;;;;;;;13.34;94.22;101213.50;5072429;28;19912;-92
2023/10/23 10:28:27;;;;;;;;;;;;;;;13.32;93.76;101214.41;5072232;28;19962;-92
2023/10/23 10:30:54;;;;;;;;;;;;;;;13.43;93.93;101215.13;5036573;28;20015;-92
2023/10/23 10:33:38;;;;;;;;;;;;;;;13.53;93.22;101207.91;5053632;28;19919;-92
2023/10/23 10:36:13;;;;;;;;;;;;;;;13.62;93.05;101206.88;5052192;28;20344;-91
2023/10/23 10:38:45;;;;;;;;;;;;;;;13.65;92.41;101199.81;5052346;28;19917;-92
2023/10/23 10:41:17;;;;;;;;;;;;;;;13.48;93.08;101189.56;5053306;28;19956;-92
2023/10/23 10:43:43;;;;;;;;;;;;;;;13.44;93.88;101187.03;5051943;28;19916;-91
2023/10/23 10:46:31;;;;;;;;;;;;;;;13.34;92.93;101189.81;5052630;28;19958;-91
2023/10/23 10:49:03;;;;;;;;;;;;;;;13.28;93.90;101184.63;5052502;28;19956;-92
2023/10/23 10:51:31;;;;;;;;;;;;;;;13.25;93.31;101175.94;5036475;28;19967;-92
2023/10/23 10:57:18;;;;;;;;;;;;;;;13.37;93.93;101169.63;5050973;28;20014;-91
2023/10/23 11:00:07;;;;;;;;;;;;;;;13.50;92.76;101166.75;5052112;28;19970;-92
2023/10/23 11:02:52;;;;;;;;;;;;;;;13.46;93.31;101165.06;4975247;28;19925;-92
2023/10/23 11:08:23;;;;;;;;;;;;;;;13.54;93.34;101151.75;5053246;28;19971;-92
2023/10/23 11:10:56;;;;;;;;;;;;;;;13.44;93.52;101150.19;5069028;28;19923;-92
2023/10/23 11:14:07;;;;;;;;;;;;;;;;;;;;;
2023/10/23 11:19:20;;;;;;;;;;;;;;;13.28;93.92;101133.78;5058533;28;19939;-92
2023/10/23 11:31:28;;;;;;;;;;;;;;;13.31;93.73;101115.28;5031007;28;19920;-92
2023/10/23 11:34:12;;;;;;;;;;;;;;;13.31;94.18;101108.25;5014435;28;19944;-93
2023/10/23 11:37:07;;;;;;;;;;;;;;;13.38;94.68;101111.69;5054389;28;19941;-92
2023/10/23 11:39:49;;;;;;;;;;;;;;;13.45;93.87;101104.53;5059885;28;20007;-92
2023/10/23 11:42:26;;;;;;;;;;;;;;;13.48;93.90;101097.44;5076426;28;19916;-92
2023/10/23 11:45:05;;;;;;;;;;;;;;;13.55;93.54;101085.03;5076245;28;19921;-92
2023/10/23 11:47:56;;;;;;;;;;;;;;;13.50;93.44;101081.59;5075755;28;20301;-93
2023/10/23 11:50:21;;;;;;;;;;;;;;;13.55;94.00;101084.13;5044039;28;19913;-92
2023/10/23 11:52:47;;;;;;;;;;;;;;;13.50;93.19;101071.97;5075765;28;19958;-93
2023/10/23 11:55:21;;;;;;;;;;;;;;;13.44;92.48;101061.53;5076156;28;19916;-93
2023/10/23 11:57:57;;;;;;;;;;;;;;;13.38;92.88;101066.94;5086282;28;19927;-92
2023/10/23 12:00:23;;;;;;;;;;;;;;;13.44;93.83;101061.53;5075311;28;19998;-92
2023/10/23 12:02:50;;;;;;;;;;;;;;;13.47;94.20;101064.09;5076821;28;20003;-93
2023/10/23 12:08:23;;;;;;;;;;;;;;;13.40;94.08;101059.84;5076691;28;20326;-93
2023/10/23 12:13:51;;;;;;;;;;;;;;;13.31;92.29;101049.50;5076613;28;19924;-92
2023/10/23 12:16:38;;;;;;;;;;;;;;;13.29;93.51;101046.03;5076391;28;20260;-92
2023/10/23 12:22:12;;;;;;;;;;;;;;;13.30;93.88;101042.47;5069295;28;19920;-92
2023/10/23 12:24:43;;;;;;;;;;;;;;;13.24;94.14;101032.94;5076271;28;19921;-92
2023/10/23 12:27:21;;;;;;;;;;;;;;;13.27;94.55;101032.88;5058046;28;20319;-92
2023/10/23 12:30:01;;;;;;;;;;;;;;;;;;;;;
2023/10/23 12:32:27;;;;;;;;;;;;;;;13.26;94.35;101025.91;5077063;28;19912;-92
2023/10/23 12:34:59;;;;;;;;;;;;;;;13.24;94.04;101019.78;5042441;28;20012;-92
2023/10/23 12:37:31;;;;;;;;;;;;;;;13.29;94.47;101022.34;5076221;28;19912;-92
2023/10/23 12:40:15;;;;;;;;;;;;;;;13.23;94.08;101020.72;5058452;28;19955;-92
2023/10/23 12:42:46;;;;;;;;;;;;;;;13.30;94.64;101005.63;5057439;28;19913;-93
2023/10/23 12:45:13;;;;;;;;;;;;;;;13.23;94.27;101001.41;5076480;28;20302;-91
2023/10/23 12:47:52;;;;;;;;;;;;;;;13.21;94.72;101008.47;5058139;28;20364;-92
2023/10/23 12:50:26;;;;;;;;;;;;;;;13.25;94.65;100991.72;5057755;28;20288;-93
2023/10/23 12:55:54;;;;;;;;;;;;;;;13.23;95.14;100993.50;5076189;28;20062;-92
2023/10/23 13:01:40;;;;;;;;;;;;;;;13.27;94.92;100989.91;5056149;28;20356;-92
2023/10/23 13:04:21;;;;;;;;;;;;;;;13.30;94.56;100984.59;5055644;28;19928;-92
2023/10/23 13:06:52;;;;;;;;;;;;;;;13.31;94.98;100976.66;5055850;28;19912;-92
2023/10/23 13:09:18;;;;;;;;;;;;;;;13.32;94.98;100969.66;5037965;28;19912;-92
2023/10/23 13:12:02;;;;;;;;;;;;;;;13.39;94.23;100971.28;5037968;28;20379;-92
2023/10/23 13:14:43;;;;;;;;;;;;;;;13.34;94.72;100970.47;5038495;28;19926;-92
2023/10/23 13:17:19;;;;;;;;;;;;;;;13.31;94.69;100966.13;5038069;28;20387;-92
2023/10/23 13:19:54;;;;;;;;;;;;;;;13.27;95.32;100958.34;5038669;28;19917;-92
2023/10/23 13:22:22;;;;;;;;;;;;;;;13.29;95.52;100956.56;5037267;28;19955;-92
2023/10/23 13:24:51;;;;;;;;;;;;;;;13.34;94.76;100946.78;5037584;28;19959;-92
2023/10/23 13:27:34;;;;;;;;;;;;;;;13.20;94.40;100946.22;5037809;28;19913;-92
2023/10/23 13:30:22;;;;;;;;;;;;;;;13.09;95.17;100938.56;5037750;28;20376;-92
2023/10/23 13:38:53;;;;;;;;;;;;;;;13.03;95.14;100936.91;5055016;28;19920;-92
2023/10/23 13:41:19;;;;;;;;;;;;;;;13.01;95.69;100920.28;5037305;28;19912;-92
2023/10/23 13:43:47;;;;;;;;;;;;;;;13.09;95.35;100922.78;5037337;28;20012;-92
2023/10/23 13:55:31;;;;;;;;;;;;;;;13.07;94.39;100906.13;5055112;28;20018;-92
2023/10/23 13:58:18;;;;;;;;;;;;;;;13.14;94.05;100911.22;5037489;28;20352;-91
2023/10/23 14:07:02;;;;;;;;;;;;;;;13.13;92.74;100883.19;5074530;28;20403;-92
2023/10/23 14:09:59;;;;;;;;;;;;;;;13.20;91.64;100877.78;5072656;28;19912;-92
2023/10/23 14:12:36;;;;;;;;;;;;;;;13.15;90.50;100875.28;5042920;28;20287;-92
2023/10/23 14:18:12;;;;;;;;;;;;;;;13.18;92.10;100862.91;5074548;28;19998;-92
2023/10/23 14:20:46;;;;;;;;;;;;;;;13.18;92.35;100867.31;5039530;28;19924;-92
2023/10/23 14:23:22;;;;;;;;;;;;;;;13.21;92.53;100864.59;5056355;28;20379;-92
2023/10/23 14:25:50;;;;;;;;;;;;;;;13.15;92.78;100852.44;5057445;28;19912;-92
2023/10/23 14:28:24;;;;;;;;;;;;;;;13.16;92.64;100855.97;5056690;28;20276;-93
2023/10/23 14:30:58;;;;;;;;;;;;;;;13.08;93.42;100850.84;5055542;28;19917;-91
2023/10/23 14:43:04;;;;;;;;;;;;;;;;;;;;;
2023/10/23 14:46:02;;;;;;;;;;;;;;;12.86;94.80;100804.88;5073506;28;19923;-91
2023/10/23 14:48:46;;;;;;;;;;;;;;;12.80;95.47;100796.22;5072242;28;19912;-92
2023/10/23 14:51:38;;;;;;;;;;;;;;;12.81;95.52;100794.47;5066678;28;19920;-92
2023/10/23 14:57:26;;;;;;;;;;;;;;;12.76;96.60;100778.78;5053590;28;19912;-92
2023/10/23 14:59:55;;;;;;;;;;;;;;;12.74;96.48;100774.44;5053024;28;20392;-93
2023/10/23 15:02:29;;;;;;;;;;;;;;;12.77;96.61;100764.75;5036281;28;19958;-92
2023/10/23 15:05:06;;;;;;;;;;;;;;;12.73;97.07;100770.97;5035565;28;19917;-93
2023/10/23 15:08:00;;;;;;;;;;;;;;;12.71;97.40;100759.59;5020723;28;20030;-92
2023/10/23 15:10:29;;;;;;;;;;;;;;;12.74;97.66;100756.94;5029367;28;20042;-93
2023/10/23 15:13:08;;;;;;;;;;;;;;;12.71;97.61;100754.34;5035980;28;19913;-92
2023/10/23 15:18:47;;;;;;;;;;;;;;;12.59;99.08;100742.34;5054117;28;19924;-93
2023/10/23 15:21:16;;;;;;;;;;;;;;;12.62;98.71;100739.63;5047287;28;20041;-93
2023/10/23 15:23:41;;;;;;;;;;;;;;;12.55;99.59;100735.41;5051229;28;20269;-93
2023/10/23 15:26:06;;;;;;;;;;;;;;;12.55;99.55;100727.53;5052519;28;20354;-92
2023/10/23 15:28:34;;;;;;;;;;;;;;;12.55;99.57;100732.78;5042749;28;19952;-93
2023/10/23 15:31:01;;;;;;;;;;;;;;;12.56;99.86;100734.53;5036562;28;19917;-93
2023/10/23 15:33:27;;;;;;;;;;;;;;;12.53;100.00;100741.59;5035849;28;19990;-93
2023/10/23 15:35:53;;;;;;;;;;;;;;;12.58;100.00;100743.22;5034148;28;20334;-92
2023/10/23 15:38:29;;;;;;;;;;;;;;;12.45;100.00;100734.75;5033907;28;19955;-92
2023/10/23 15:41:04;;;;;;;;;;;;;;;12.44;100.00;100740.91;5048803;28;19983;-92
2023/10/23 15:43:56;;;;;;;;;;;;;;;12.41;100.00;100730.47;5051824;28;19924;-92
2023/10/23 15:46:25;;;;;;;;;;;;;;;12.39;100.00;100727.00;5059671;28;19916;-92
2023/10/23 15:48:54;;;;;;;;;;;;;;;12.36;100.00;100734.09;5018741;28;20280;-91
2023/10/23 15:51:31;;;;;;;;;;;;;;;12.34;100.00;100733.25;5035764;28;20351;-91
2023/10/23 15:57:07;;;;;;;;;;;;;;;12.33;100.00;100736.78;5053252;28;19982;-92
2023/10/23 15:59:38;;;;;;;;;;;;;;;12.28;100.00;100734.22;5025919;28;19924;-92
2023/10/23 16:02:21;;;;;;;;;;;;;;;12.26;100.00;100741.31;5034157;28;19959;-92
2023/10/23 16:08:10;;;;;;;;;;;;;;;12.25;100.00;100735.16;5059128;28;19973;-91
2023/10/23 16:11:14;;;;;;;;;;;;;;;;;;;;;
2023/10/23 16:13:44;;;;;;;;;;;;;;;12.20;100.00;100737.03;5025032;28;19917;-91
2023/10/23 16:16:14;;;;;;;;;;;;;;;12.19;100.00;100739.69;5058396;28;19970;-91
2023/10/23 16:18:59;;;;;;;;;;;;;;;;;;;;;
2023/10/23 16:21:44;;;;;;;;;;;;;;;12.13;100.00;100736.28;5056694;28;20388;-91
2023/10/23 16:24:12;;;;;;;;;;;;;;;12.13;100.00;100741.53;5079010;28;19916;-92
2023/10/23 16:26:40;;;;;;;;;;;;;;;12.11;100.00;100738.09;5063808;28;20007;-92
2023/10/23 16:29:05;;;;;;;;;;;;;;;12.08;100.00;100738.16;5071112;28;19912;-92
2023/10/23 16:31:44;;;;;;;;;;;;;;;12.09;100.00;100733.75;5042814;28;20378;-92
2023/10/23 16:34:12;;;;;;;;;;;;;;;12.05;100.00;100734.69;5074866;28;19913;-92
2023/10/23 16:36:37;;;;;;;;;;;;;;;12.02;100.00;100719.88;5075462;28;19917;-91
2023/10/23 16:39:09;;;;;;;;;;;;;;;11.98;100.00;100709.44;5074238;28;19913;-91
2023/10/23 16:41:44;;;;;;;;;;;;;;;;;;;;;
2023/10/23 16:47:47;;;;;;;;;;;;;;;11.86;100.00;100695.63;5009948;28;20011;-91
2023/10/23 16:50:57;;;;;;;;;;;;;;;11.77;100.00;100686.19;4981489;28;19918;-91
2023/10/23 16:53:38;;;;;;;;;;;;;;;;;;;;;
2023/10/23 16:56:04;;;;;;;;;;;;;;;11.75;100.00;100673.97;4978964;28;19917;-93
2023/10/23 16:58:30;;;;;;;;;;;;;;;11.66;100.00;100669.75;5013867;28;20031;-91
2023/10/23 17:00:56;;;;;;;;;;;;;;;11.64;100.00;100661.06;5056035;28;19920;-92
2023/10/23 17:03:22;;;;;;;;;;;;;;;11.58;100.00;100663.81;5056388;28;19982;-92
2023/10/23 17:05:47;;;;;;;;;;;;;;;11.55;100.00;100667.34;5056279;28;19927;-93
2023/10/23 17:08:13;;;;;;;;;;;;;;;11.54;100.00;100656.88;5056320;28;20441;-92
2023/10/23 17:10:43;;;;;;;;;;;;;;;11.49;100.00;100649.09;5039930;28;19917;-92
2023/10/23 17:13:26;;;;;;;;;;;;;;;11.45;100.00;100650.06;5057525;28;19998;-91
2023/10/23 17:16:18;;;;;;;;;;;;;;;11.43;100.00;100647.47;5075532;28;19917;-91
2023/10/23 17:18:52;;;;;;;;;;;;;;;11.40;100.00;100639.63;5073702;28;19922;-91
2023/10/23 17:21:44;;;;;;;;;;;;;;;11.34;100.00;100626.63;5057117;28;19943;-91
2023/10/23 17:24:22;;;;;;;;;;;;;;;11.30;100.00;100621.47;5057738;28;19922;-91
2023/10/23 17:26:57;;;;;;;;;;;;;;;11.25;100.00;100621.56;5053266;28;19916;-92
2023/10/23 17:29:26;;;;;;;;;;;;;;;11.23;100.00;100610.22;5055146;28;19917;-91
2023/10/23 17:31:53;;;;;;;;;;;;;;;11.30;100.00;100611.84;5073289;28;20014;-91
2023/10/23 17:34:26;;;;;;;;;;;;;;;11.23;100.00;100611.09;5058452;28;19917;-93
2023/10/23 17:39:42;;;;;;;;;;;;;;;11.26;100.00;100611.03;5075014;28;20376;-93
2023/10/23 17:42:17;;;;;;;;;;;;;;;11.24;100.00;100609.34;5073426;28;19912;-92
2023/10/23 17:45:03;;;;;;;;;;;;;;;11.24;100.00;100611.97;5073172;28;20360;-92
2023/10/23 17:47:40;;;;;;;;;;;;;;;11.23;100.00;100607.59;5074781;28;19935;-92
2023/10/23 17:50:31;;;;;;;;;;;;;;;11.24;100.00;100610.19;5073103;28;19992;-92
2023/10/23 17:53:14;;;;;;;;;;;;;;;11.19;100.00;100611.16;5059673;28;19962;-92
2023/10/23 17:55:57;;;;;;;;;;;;;;;11.18;100.00;100617.31;5074230;28;20356;-92
2023/10/23 17:58:26;;;;;;;;;;;;;;;11.18;100.00;100614.69;5052678;28;20667;-92
2023/10/23 18:00:51;;;;;;;;;;;;;;;11.16;100.00;100613.84;5068927;28;20407;-92
2023/10/23 18:03:35;;;;;;;;;;;;;;;11.17;100.00;100610.34;5072676;28;19917;-92
2023/10/23 18:09:17;;;;;;;;;;;;;;;11.14;100.00;100594.66;5073859;28;19919;-92
2023/10/23 18:14:55;;;;;;;;;;;;;;;11.11;100.00;100582.47;5074101;28;19918;-93
2023/10/23 18:17:48;;;;;;;;;;;;;;;;;;;;;
2023/10/23 18:39:43;;;;;;;;;;;;;;;11.00;100.00;100561.66;4955267;28;19957;-91
2023/10/23 19:05:21;;;;;;;;;;;;;;;;;;;;;
2023/10/23 19:07:52;;;;;;;;;;;;;;;;;;;;;
2023/10/23 19:44:31;;;;;;;;;;;;;;;10.83;100.00;100467.63;5052980;28;20284;-91
2023/10/23 19:47:17;;;;;;;;;;;;;;;10.87;100.00;100469.25;5054822;28;19923;-91
2023/10/23 19:49:58;;;;;;;;;;;;;;;10.89;100.00;100470.13;5054180;28;20245;-90
2023/10/23 19:52:42;;;;;;;;;;;;;;;10.94;100.00;100466.56;5053933;28;19916;-91
2023/10/23 19:55:18;;;;;;;;;;;;;;;10.85;100.00;100457.09;5054528;28;19917;-91
2023/10/23 19:58:07;;;;;;;;;;;;;;;10.88;100.00;100450.03;5012949;28;19917;-90
2023/10/23 20:06:58;;;;;;;;;;;;;;;10.93;100.00;100434.22;4956839;28;20335;-94
2023/10/23 20:09:26;;;;;;;;;;;;;;;10.82;100.00;100433.56;5034001;28;20372;-94
2023/10/23 20:11:52;;;;;;;;;;;;;;;10.84;100.00;100431.78;4997998;28;20373;-94
2023/10/23 20:17:33;;;;;;;;;;;;;;;10.94;100.00;100427.22;5034519;28;19924;-93
2023/10/23 20:29:20;;;;;;;;;;;;;;;10.69;100.00;100410.22;5050269;28;19924;-93
2023/10/23 20:34:59;;;;;;;;;;;;;;;10.70;100.00;100403.22;5057512;28;19948;-93
2023/10/23 20:37:28;;;;;;;;;;;;;;;10.63;100.00;100405.09;5055399;28;20273;-93
2023/10/23 20:39:55;;;;;;;;;;;;;;;10.53;100.00;100390.41;5055759;28;19936;-93
2023/10/23 20:42:21;;;;;;;;;;;;;;;10.49;100.00;100384.41;5067997;28;20369;-93
2023/10/23 20:44:57;;;;;;;;;;;;;;;10.48;100.00;100394.91;5062055;28;19913;-94
2023/10/23 20:47:30;;;;;;;;;;;;;;;10.45;100.00;100384.50;5059667;28;20308;-93
2023/10/23 20:49:59;;;;;;;;;;;;;;;10.36;100.00;100369.81;5068698;28;19913;-93
2023/10/23 20:52:26;;;;;;;;;;;;;;;10.43;100.00;100366.19;5071389;28;20388;-93
2023/10/23 21:04:11;;;;;;;;;;;;;;;10.39;100.00;100327.84;5050451;28;19984;-92
2023/10/23 21:06:55;;;;;;;;;;;;;;;10.31;100.00;100343.66;5066895;28;19948;-92
2023/10/23 21:09:29;;;;;;;;;;;;;;;10.36;100.00;100336.59;5073654;28;20027;-94
2023/10/23 21:11:57;;;;;;;;;;;;;;;10.29;100.00;100342.81;5056356;28;19956;-92
2023/10/23 21:14:46;;;;;;;;;;;;;;;10.31;100.00;100330.56;5066957;28;19936;-92
2023/10/23 21:17:14;;;;;;;;;;;;;;;10.33;100.00;100317.41;5073902;28;20470;-93
2023/10/23 21:26:08;;;;;;;;;;;;;;;10.20;100.00;100295.84;5093947;28;19935;-92
2023/10/23 21:28:50;;;;;;;;;;;;;;;;;;;;;
2023/10/23 21:31:34;;;;;;;;;;;;;;;10.19;100.00;100296.75;5092998;28;20384;-91
2023/10/23 21:37:03;;;;;;;;;;;;;;;10.22;100.00;100279.22;5093396;28;19918;-93
2023/10/23 21:42:31;;;;;;;;;;;;;;;10.31;100.00;100278.16;5082841;28;19924;-93
2023/10/23 21:48:00;;;;;;;;;;;;;;;10.26;100.00;100266.06;5093741;28;19923;-92
2023/10/23 21:53:28;;;;;;;;;;;;;;;10.17;100.00;100254.00;5078149;28;20379;-93
2023/10/23 21:58:56;;;;;;;;;;;;;;;10.18;100.00;100253.13;5074646;28;20394;-94
2023/10/23 22:01:28;;;;;;;;;;;;;;;10.19;100.00;100252.25;5074816;28;19955;-95
2023/10/23 22:04:21;;;;;;;;;;;;;;;10.18;100.00;100246.13;5073933;28;19966;-93
2023/10/23 22:07:04;;;;;;;;;;;;;;;10.29;100.00;100243.31;5062538;28;19920;-94